createdAt,value
2019-02-28T00:00:59.168Z,3.50
2019-02-28T00:03:32.689Z,3.51
2019-02-28T00:06:05.863Z,3.59
2019-02-28T00:08:39.564Z,3.56
2019-02-28T00:11:12.241Z,3.55
2019-02-28T00:13:44.734Z,3.64
2019-02-28T00:16:17.583Z,3.57
2019-02-28T00:18:50.622Z,3.46
2019-02-28T00:21:23.350Z,3.35
2019-02-28T00:23:57.480Z,3.25
2019-02-28T00:26:31.092Z,3.19
2019-02-28T00:29:04.330Z,3.11
2019-02-28T00:31:37.359Z,2.99
2019-02-28T00:34:11.252Z,3.15
2019-02-28T00:36:44.005Z,3.40
2019-02-28T00:39:16.884Z,3.49
2019-02-28T00:41:50.328Z,3.44
2019-02-28T00:44:22.866Z,3.37
2019-02-28T00:46:56.870Z,3.28
2019-02-28T00:49:29.406Z,3.19
2019-02-28T00:52:07.597Z,3.34
2019-02-28T00:54:45.796Z,3.36
2019-02-28T00:57:18.858Z,3.42
2019-02-28T00:59:53.738Z,3.36
2019-02-28T01:02:26.833Z,3.36
2019-02-28T01:05:01.305Z,3.33
2019-02-28T01:07:37.375Z,3.34
2019-02-28T01:10:12.098Z,3.40
2019-02-28T01:12:44.570Z,3.39
2019-02-28T01:15:16.043Z,3.41
2019-02-28T01:18:00.405Z,3.41
2019-02-28T01:20:39.061Z,3.44
2019-02-28T01:23:41.974Z,3.60
2019-02-28T01:26:16.371Z,3.74
2019-02-28T01:28:50.418Z,3.69
2019-02-28T01:31:25.405Z,3.66
2019-02-28T01:33:59.378Z,3.70
2019-02-28T01:36:31.922Z,3.69
2019-02-28T01:39:08.426Z,3.59
2019-02-28T01:41:42.270Z,3.43
2019-02-28T01:44:17.678Z,3.33
2019-02-28T01:46:51.215Z,3.23
2019-02-28T01:49:26.872Z,3.05
2019-02-28T01:51:59.655Z,2.94
2019-02-28T01:54:33.122Z,2.85
2019-02-28T01:57:08.999Z,2.81
2019-02-28T01:59:42.741Z,2.84
2019-02-28T02:02:15.697Z,2.94
2019-02-28T02:04:48.806Z,3.03
2019-02-28T02:07:22.031Z,3.50
2019-02-28T02:09:55.138Z,3.47
2019-02-28T02:12:31.276Z,3.63
2019-02-28T02:15:10.123Z,3.67
2019-02-28T02:17:46.000Z,3.74
2019-02-28T02:20:19.010Z,3.82
2019-02-28T02:22:52.994Z,4.04
2019-02-28T02:25:25.598Z,4.13
2019-02-28T02:27:58.220Z,4.40
2019-02-28T02:30:31.220Z,4.54
2019-02-28T02:33:04.596Z,4.55
2019-02-28T02:35:42.221Z,4.52
2019-02-28T02:38:16.469Z,4.43
2019-02-28T02:40:49.596Z,4.34
2019-02-28T02:43:23.490Z,4.30
2019-02-28T02:45:56.874Z,4.27
2019-02-28T02:48:29.701Z,4.14
2019-02-28T02:51:02.221Z,3.91
2019-02-28T02:53:41.544Z,3.63
2019-02-28T02:56:14.377Z,3.28
2019-02-28T02:58:48.583Z,3.12
2019-02-28T03:01:23.084Z,3.13
2019-02-28T03:03:57.438Z,3.22
2019-02-28T03:06:30.032Z,3.21
2019-02-28T03:09:04.494Z,3.26
2019-02-28T03:11:37.182Z,3.31
2019-02-28T03:14:09.983Z,3.15
2019-02-28T03:16:42.696Z,3.11
2019-02-28T03:19:16.333Z,2.99
2019-02-28T03:21:52.597Z,3.05
2019-02-28T03:24:26.244Z,3.05
2019-02-28T03:26:58.768Z,3.16
2019-02-28T03:29:31.360Z,3.34
2019-02-28T03:32:05.625Z,3.53
2019-02-28T03:34:38.549Z,3.38
2019-02-28T03:37:11.173Z,3.35
2019-02-28T03:39:44.693Z,3.26
2019-02-28T03:42:17.585Z,3.09
2019-02-28T03:44:56.730Z,3.01
2019-02-28T03:47:30.658Z,3.02
2019-02-28T03:50:05.166Z,2.98
2019-02-28T03:52:42.265Z,3.07
2019-02-28T03:55:16.432Z,3.15
2019-02-28T03:57:50.053Z,3.04
2019-02-28T04:00:22.620Z,3.05
2019-02-28T04:02:58.460Z,3.14
2019-02-28T04:05:32.665Z,3.38
2019-02-28T04:08:05.519Z,3.24
2019-02-28T04:10:38.260Z,3.45
2019-02-28T04:13:11.065Z,3.40
2019-02-28T04:16:01.455Z,3.45
2019-02-28T04:18:46.212Z,3.48
2019-02-28T04:21:19.444Z,3.46
2019-02-28T04:23:52.420Z,3.59
2019-02-28T04:26:24.988Z,3.59
2019-02-28T04:28:57.612Z,3.71
2019-02-28T04:31:30.696Z,3.69
2019-02-28T04:34:04.538Z,3.46
2019-02-28T04:36:37.150Z,3.33
2019-02-28T04:39:12.145Z,3.39
2019-02-28T04:41:44.773Z,3.20
2019-02-28T04:44:18.245Z,3.08
2019-02-28T04:46:51.901Z,3.13
2019-02-28T04:49:24.282Z,3.07
2019-02-28T04:51:56.872Z,3.04
2019-02-28T04:54:30.652Z,3.10
2019-02-28T04:57:03.344Z,2.99
2019-02-28T04:59:36.052Z,3.02
2019-02-28T05:02:09.242Z,2.93
2019-02-28T05:04:42.062Z,2.94
2019-02-28T05:07:16.372Z,3.00
2019-02-28T05:09:49.481Z,2.97
2019-02-28T05:12:22.682Z,3.11
2019-02-28T05:14:58.543Z,3.04
2019-02-28T05:17:35.969Z,2.98
2019-02-28T05:20:10.751Z,3.22
2019-02-28T05:22:45.998Z,3.57
2019-02-28T05:25:19.821Z,3.89
2019-02-28T05:27:53.592Z,4.29
2019-02-28T05:30:27.152Z,4.33
2019-02-28T05:32:59.833Z,4.17
2019-02-28T05:35:32.897Z,3.93
2019-02-28T05:38:05.325Z,3.85
2019-02-28T05:40:41.362Z,3.84
2019-02-28T05:43:14.371Z,3.99
2019-02-28T05:45:49.539Z,4.11
2019-02-28T05:48:23.479Z,4.14
2019-02-28T05:50:56.240Z,4.26
2019-02-28T05:53:28.798Z,4.31
2019-02-28T05:56:01.292Z,4.28
2019-02-28T05:58:36.700Z,4.58
2019-02-28T06:01:11.821Z,4.73
2019-02-28T06:03:46.045Z,5.05
2019-02-28T06:06:20.134Z,5.17
2019-02-28T06:08:54.223Z,5.34
2019-02-28T06:11:26.686Z,5.52
2019-02-28T06:13:59.952Z,5.62
2019-02-28T06:16:33.480Z,5.67
2019-02-28T06:19:08.358Z,5.61
2019-02-28T06:21:41.999Z,5.45
2019-02-28T06:24:15.655Z,5.42
2019-02-28T06:26:48.107Z,5.43
2019-02-28T06:29:21.045Z,5.44
2019-02-28T06:31:53.822Z,5.06
2019-02-28T06:34:26.480Z,4.94
2019-02-28T06:37:03.672Z,5.02
2019-02-28T06:39:39.394Z,5.36
2019-02-28T06:42:13.174Z,5.55
2019-02-28T06:44:47.423Z,5.63
2019-02-28T06:47:20.075Z,5.59
2019-02-28T06:49:52.725Z,5.47
2019-02-28T06:52:27.019Z,5.60
2019-02-28T06:54:59.751Z,5.56
2019-02-28T06:57:33.497Z,5.54
2019-02-28T07:00:13.428Z,5.75
2019-02-28T07:02:46.608Z,5.96
2019-02-28T07:05:24.783Z,5.86
2019-02-28T07:08:00.939Z,5.98
2019-02-28T07:10:34.410Z,6.30
2019-02-28T07:13:07.673Z,6.48
2019-02-28T07:15:41.171Z,6.59
2019-02-28T07:18:13.714Z,6.62
2019-02-28T07:20:48.931Z,6.69
2019-02-28T07:23:22.350Z,6.74
2019-02-28T07:25:55.493Z,6.70
2019-02-28T07:28:28.095Z,6.68
2019-02-28T07:31:02.886Z,6.73
2019-02-28T07:33:41.327Z,6.86
2019-02-28T07:36:18.491Z,6.88
2019-02-28T07:38:53.513Z,6.81
2019-02-28T07:41:36.000Z,6.78
2019-02-28T07:44:12.110Z,6.68
2019-02-28T07:46:47.537Z,6.68
2019-02-28T07:49:21.036Z,6.82
2019-02-28T07:51:56.937Z,6.91
2019-02-28T07:54:31.470Z,7.22
2019-02-28T07:57:09.042Z,7.43
2019-02-28T07:59:43.013Z,7.55
2019-02-28T08:02:17.134Z,7.67
2019-02-28T08:04:50.761Z,7.80
2019-02-28T08:07:27.460Z,7.91
2019-02-28T08:10:00.030Z,7.98
2019-02-28T08:12:34.002Z,8.06
2019-02-28T08:15:14.188Z,8.15
2019-02-28T08:17:49.225Z,8.26
2019-02-28T08:20:23.342Z,8.36
2019-02-28T08:22:57.656Z,8.42
2019-02-28T08:25:30.522Z,8.50
2019-02-28T08:28:03.834Z,8.55
2019-02-28T08:30:37.190Z,8.60
2019-02-28T08:33:10.443Z,8.62
2019-02-28T08:35:48.230Z,8.63
2019-02-28T08:38:23.062Z,8.68
2019-02-28T08:40:58.839Z,8.75
2019-02-28T08:43:32.764Z,8.82
2019-02-28T08:46:10.800Z,8.93
2019-02-28T08:48:47.144Z,9.01
2019-02-28T08:51:23.158Z,9.09
2019-02-28T08:53:58.087Z,9.16
2019-02-28T08:56:32.280Z,9.27
2019-02-28T08:59:11.592Z,9.38
2019-02-28T09:01:46.324Z,9.50
2019-02-28T09:04:20.063Z,9.62
2019-02-28T09:06:54.388Z,9.70
2019-02-28T09:09:34.458Z,9.77
2019-02-28T09:12:09.388Z,9.80
2019-02-28T09:14:42.782Z,9.81
2019-02-28T09:17:19.385Z,9.90
2019-02-28T09:19:55.840Z,10.17
2019-02-28T09:22:28.401Z,10.57
2019-02-28T09:25:02.060Z,10.93
2019-02-28T09:27:39.030Z,11.02
2019-02-28T09:30:26.591Z,11.10
2019-02-28T09:33:09.180Z,11.04
2019-02-28T09:35:46.334Z,11.02
2019-02-28T09:38:19.265Z,11.26
2019-02-28T09:40:51.942Z,11.53
2019-02-28T09:43:27.032Z,12.08
2019-02-28T09:46:02.855Z,12.08
2019-02-28T09:48:37.091Z,11.78
2019-02-28T09:51:11.603Z,11.57
2019-02-28T09:53:47.341Z,11.64
2019-02-28T09:56:22.840Z,11.70
2019-02-28T09:59:00.241Z,11.73
2019-02-28T10:01:36.584Z,11.78
2019-02-28T10:04:12.798Z,11.94
2019-02-28T10:06:48.508Z,12.27
2019-02-28T10:09:24.955Z,12.56
2019-02-28T10:11:58.005Z,12.64
2019-02-28T10:14:30.495Z,12.57
2019-02-28T10:17:07.036Z,12.70
2019-02-28T10:19:45.726Z,13.18
2019-02-28T10:22:19.552Z,13.67
2019-02-28T10:24:53.488Z,14.04
2019-02-28T10:27:27.689Z,14.16
2019-02-28T10:30:00.333Z,14.07
2019-02-28T10:32:35.706Z,13.91
2019-02-28T10:35:10.256Z,13.62
2019-02-28T10:37:43.950Z,13.53
2019-02-28T10:40:23.529Z,13.51
2019-02-28T10:42:56.321Z,13.42
2019-02-28T10:45:31.242Z,13.29
2019-02-28T10:48:04.797Z,13.25
2019-02-28T10:50:37.502Z,13.29
2019-02-28T10:53:11.536Z,13.29
2019-02-28T10:55:46.683Z,13.29
2019-02-28T10:58:21.153Z,13.33
2019-02-28T11:00:58.296Z,13.26
2019-02-28T11:03:32.423Z,13.24
2019-02-28T11:06:06.369Z,13.37
2019-02-28T11:08:44.514Z,13.36
2019-02-28T11:11:21.759Z,13.41
2019-02-28T11:13:59.371Z,13.52
2019-02-28T11:16:33.323Z,13.65
2019-02-28T11:19:06.619Z,13.54
2019-02-28T11:21:40.771Z,13.47
2019-02-28T11:24:13.747Z,13.45
2019-02-28T11:26:46.292Z,13.51
2019-02-28T11:29:19.324Z,13.78
2019-02-28T11:31:54.274Z,14.02
2019-02-28T11:34:30.953Z,14.33
2019-02-28T11:37:05.489Z,14.53
2019-02-28T11:39:42.460Z,14.61
2019-02-28T11:42:16.224Z,14.81
2019-02-28T11:44:53.217Z,15.00
2019-02-28T11:47:25.837Z,15.10
2019-02-28T11:50:03.554Z,14.96
2019-02-28T11:52:37.736Z,15.03
2019-02-28T11:55:11.748Z,14.95
2019-02-28T11:57:44.408Z,14.89
2019-02-28T12:00:23.667Z,14.92
2019-02-28T12:03:00.795Z,14.83
2019-02-28T12:05:35.197Z,14.68
2019-02-28T12:08:10.459Z,14.80
2019-02-28T12:10:43.485Z,15.08
2019-02-28T12:13:19.711Z,15.23
2019-02-28T12:15:56.723Z,15.16
2019-02-28T12:18:31.820Z,15.33
2019-02-28T12:21:07.361Z,15.33
2019-02-28T12:23:41.229Z,15.37
2019-02-28T12:26:17.731Z,15.41
2019-02-28T12:28:57.992Z,15.44
2019-02-28T12:31:35.765Z,15.38
2019-02-28T12:34:15.050Z,15.28
2019-02-28T12:36:51.628Z,15.07
2019-02-28T12:39:24.558Z,15.16
2019-02-28T12:41:59.516Z,15.22
2019-02-28T12:44:33.868Z,15.35
2019-02-28T12:47:07.592Z,15.24
2019-02-28T12:49:44.004Z,15.13
2019-02-28T12:52:17.251Z,15.12
2019-02-28T12:54:50.004Z,15.20
2019-02-28T12:57:26.548Z,15.44
2019-02-28T12:59:59.020Z,15.60
2019-02-28T13:02:33.695Z,15.52
2019-02-28T13:05:14.849Z,15.41
2019-02-28T13:07:49.870Z,15.25
2019-02-28T13:10:27.980Z,15.06
2019-02-28T13:13:07.078Z,14.90
2019-02-28T13:15:45.488Z,14.81
2019-02-28T13:18:20.373Z,14.60
2019-02-28T13:20:53.014Z,14.64
2019-02-28T13:23:27.330Z,14.60
2019-02-28T13:26:00.193Z,14.53
2019-02-28T13:28:33.848Z,14.31
2019-02-28T13:31:09.101Z,13.64
2019-02-28T13:33:52.675Z,13.14
2019-02-28T13:36:26.253Z,12.85
2019-02-28T13:38:59.618Z,12.65
2019-02-28T13:41:32.367Z,12.48
2019-02-28T13:44:06.302Z,12.35
2019-02-28T13:46:39.636Z,12.13
2019-02-28T13:49:15.601Z,11.94
2019-02-28T13:51:49.917Z,11.84
2019-02-28T13:54:23.609Z,11.70
2019-02-28T13:57:00.585Z,11.51
2019-02-28T13:59:37.232Z,11.38
2019-02-28T14:02:13.644Z,11.26
2019-02-28T14:04:46.804Z,11.16
2019-02-28T14:07:20.008Z,11.08
2019-02-28T14:09:56.995Z,10.93
2019-02-28T14:12:33.057Z,10.80
2019-02-28T14:15:10.594Z,10.74
2019-02-28T14:17:48.219Z,10.72
2019-02-28T14:20:24.515Z,10.71
2019-02-28T14:23:02.185Z,10.72
2019-02-28T14:25:36.372Z,10.72
2019-02-28T14:28:14.335Z,10.73
2019-02-28T14:30:46.953Z,10.74
2019-02-28T14:33:22.053Z,10.76
2019-02-28T14:35:54.811Z,10.77
2019-02-28T14:38:29.554Z,10.80
2019-02-28T14:41:07.328Z,10.80
2019-02-28T14:43:40.620Z,10.79
2019-02-28T14:46:18.253Z,10.82
2019-02-28T14:48:55.360Z,10.85
2019-02-28T14:51:29.863Z,10.90
2019-02-28T14:54:04.027Z,10.93
2019-02-28T14:56:42.229Z,10.96
2019-02-28T14:59:19.642Z,10.98
2019-02-28T15:01:54.185Z,11.01
2019-02-28T15:04:31.516Z,11.04
2019-02-28T15:07:08.632Z,11.08
2019-02-28T15:09:42.255Z,11.09
2019-02-28T15:12:15.856Z,11.12
2019-02-28T15:14:51.810Z,11.20
2019-02-28T15:17:25.655Z,11.30
2019-02-28T15:19:58.319Z,11.54
2019-02-28T15:22:31.620Z,11.86
2019-02-28T15:25:07.959Z,12.00
2019-02-28T15:27:40.649Z,12.06
2019-02-28T15:30:24.081Z,12.04
2019-02-28T15:32:58.966Z,12.00
2019-02-28T15:35:33.392Z,11.95
2019-02-28T15:38:09.420Z,11.92
2019-02-28T15:40:44.747Z,11.90
2019-02-28T15:43:18.634Z,11.88
2019-02-28T15:45:51.604Z,11.87
2019-02-28T15:48:41.013Z,11.87
2019-02-28T15:51:13.760Z,11.88
2019-02-28T15:53:49.642Z,11.87
2019-02-28T15:56:23.654Z,11.86
2019-02-28T15:58:59.041Z,11.86
2019-02-28T16:01:34.458Z,11.86
2019-02-28T16:04:09.226Z,11.85
2019-02-28T16:06:45.349Z,11.85
2019-02-28T16:09:21.452Z,11.85
2019-02-28T16:11:55.460Z,11.84
2019-02-28T16:14:31.413Z,11.84
2019-02-28T16:17:08.133Z,11.84
2019-02-28T16:19:40.903Z,11.86
2019-02-28T16:22:18.204Z,11.85
2019-02-28T16:24:53.552Z,11.85
2019-02-28T16:27:29.624Z,11.84
2019-02-28T16:30:32.822Z,11.85
2019-02-28T16:33:08.987Z,11.84
2019-02-28T16:35:46.681Z,11.83
2019-02-28T16:38:23.009Z,11.82
2019-02-28T16:40:57.605Z,11.83
2019-02-28T16:43:36.960Z,11.83
2019-02-28T16:46:15.452Z,11.83
2019-02-28T16:48:49.513Z,11.81
2019-02-28T16:51:43.850Z,11.79
2019-02-28T16:54:19.296Z,11.76
2019-02-28T16:56:55.211Z,11.74
2019-02-28T16:59:31.731Z,11.71
2019-02-28T17:02:08.170Z,11.68
2019-02-28T17:04:41.612Z,11.65
2019-02-28T17:07:16.382Z,11.67
2019-02-28T17:09:49.296Z,11.67
2019-02-28T17:12:29.080Z,11.68
2019-02-28T17:15:23.048Z,11.70
2019-02-28T17:18:08.451Z,11.70
2019-02-28T17:20:53.659Z,11.69
2019-02-28T17:23:29.365Z,11.69
2019-02-28T17:26:02.689Z,11.70
2019-02-28T17:28:41.200Z,11.72
2019-02-28T17:31:36.858Z,11.72
2019-02-28T17:34:13.827Z,11.70
2019-02-28T17:36:48.560Z,11.69
2019-02-28T17:39:24.295Z,11.66
2019-02-28T17:41:56.924Z,11.62
2019-02-28T17:45:10.563Z,11.52
2019-02-28T17:48:14.624Z,11.43
2019-02-28T17:51:03.202Z,11.42
2019-02-28T17:54:08.631Z,11.26
2019-02-28T17:57:29.879Z,11.02
2019-02-28T18:00:53.409Z,10.80
2019-02-28T18:04:16.536Z,10.66
2019-02-28T18:07:45.028Z,10.57
2019-02-28T18:10:48.178Z,10.56
2019-02-28T18:13:55.233Z,10.58
2019-02-28T18:17:16.061Z,10.63
2019-02-28T18:20:33.311Z,10.67
2019-02-28T18:23:52.274Z,10.67
2019-02-28T18:27:12.971Z,10.64
2019-02-28T18:30:37.466Z,10.59
2019-02-28T18:33:22.927Z,10.58
2019-02-28T18:35:56.282Z,10.62
2019-02-28T18:38:30.345Z,10.63
2019-02-28T18:41:05.749Z,10.63
2019-02-28T18:43:42.030Z,10.61
2019-02-28T18:46:29.516Z,10.55
2019-02-28T18:49:04.331Z,10.51
2019-02-28T18:51:38.245Z,10.50
2019-02-28T18:54:12.421Z,10.52
2019-02-28T18:56:45.609Z,10.55
2019-02-28T18:59:23.615Z,10.57
2019-02-28T19:01:56.360Z,10.60
2019-02-28T19:04:29.238Z,10.62
2019-02-28T19:07:01.955Z,10.61
2019-02-28T19:09:36.297Z,10.61
2019-02-28T19:12:28.993Z,10.64
2019-02-28T19:15:05.579Z,10.68
2019-02-28T19:17:41.330Z,10.69
2019-02-28T19:20:15.974Z,10.68
2019-02-28T19:22:50.474Z,10.69
2019-02-28T19:25:24.216Z,10.69
2019-02-28T19:27:57.900Z,10.63
2019-02-28T19:30:32.841Z,10.52
2019-02-28T19:33:07.439Z,10.41
2019-02-28T19:35:41.095Z,10.32
2019-02-28T19:38:16.199Z,10.20
2019-02-28T19:40:55.181Z,10.11
2019-02-28T19:43:36.947Z,10.01
2019-02-28T19:46:14.956Z,9.91
2019-02-28T19:48:48.787Z,9.84
2019-02-28T19:51:24.269Z,9.79
2019-02-28T19:54:00.331Z,9.78
2019-02-28T19:56:34.044Z,9.80
2019-02-28T19:59:07.672Z,9.83
2019-02-28T20:01:41.616Z,9.87
2019-02-28T20:04:15.526Z,9.92
2019-02-28T20:06:51.464Z,9.97
2019-02-28T20:09:24.968Z,10.02
2019-02-28T20:11:58.509Z,10.05
2019-02-28T20:14:32.204Z,10.02
2019-02-28T20:17:05.120Z,10.03
2019-02-28T20:19:40.655Z,10.01
2019-02-28T20:22:14.345Z,9.98
2019-02-28T20:24:47.591Z,9.98
2019-02-28T20:27:25.741Z,9.97
2019-02-28T20:30:04.278Z,9.96
2019-02-28T20:32:38.311Z,9.97
2019-02-28T20:35:12.944Z,9.98
2019-02-28T20:37:45.529Z,9.96
2019-02-28T20:40:19.326Z,9.94
2019-02-28T20:42:54.552Z,9.91
2019-02-28T20:45:27.313Z,9.85
2019-02-28T20:48:00.061Z,9.80
2019-02-28T20:50:39.479Z,9.77
2019-02-28T20:53:14.060Z,9.74
2019-02-28T20:55:48.168Z,9.71
2019-02-28T20:58:23.361Z,9.70
2019-02-28T21:00:58.071Z,9.67
2019-02-28T21:03:31.751Z,9.67
2019-02-28T21:06:10.276Z,9.67
2019-02-28T21:08:45.918Z,9.67
2019-02-28T21:11:19.964Z,9.69
2019-02-28T21:13:55.001Z,9.69
2019-02-28T21:16:28.171Z,9.69
2019-02-28T21:19:01.388Z,9.70
2019-02-28T21:21:36.203Z,9.70
2019-02-28T21:24:09.639Z,9.70
2019-02-28T21:26:43.705Z,9.71
2019-02-28T21:29:19.342Z,9.68
2019-02-28T21:31:51.908Z,9.61
2019-02-28T21:34:26.332Z,9.55
2019-02-28T21:37:00.318Z,9.50
2019-02-28T21:39:35.672Z,9.45
2019-02-28T21:42:10.135Z,9.41
2019-02-28T21:44:43.901Z,9.40
2019-02-28T21:47:17.275Z,9.39
2019-02-28T21:49:52.204Z,9.38
2019-02-28T21:52:26.034Z,9.37
2019-02-28T21:55:00.195Z,9.38
2019-02-28T21:57:36.098Z,9.39
2019-02-28T22:00:21.571Z,9.39
2019-02-28T22:02:54.275Z,9.38
2019-02-28T22:05:29.371Z,9.39
2019-02-28T22:08:04.814Z,9.39
2019-02-28T22:10:37.436Z,9.43
2019-02-28T22:13:11.676Z,9.45
2019-02-28T22:15:45.726Z,9.45
2019-02-28T22:18:21.190Z,9.45
2019-02-28T22:20:55.252Z,9.46
2019-02-28T22:23:31.011Z,9.47
2019-02-28T22:26:05.570Z,9.47
2019-02-28T22:28:39.501Z,9.46
2019-02-28T22:31:26.213Z,9.46
2019-02-28T22:34:07.586Z,9.45
2019-02-28T22:36:42.572Z,9.44
2019-02-28T22:39:15.965Z,9.45
2019-02-28T22:41:49.132Z,9.45
2019-02-28T22:44:22.966Z,9.44
2019-02-28T22:46:56.816Z,9.45
2019-02-28T22:49:33.637Z,9.45
2019-02-28T22:52:07.514Z,9.44
2019-02-28T22:54:41.051Z,9.45
2019-02-28T22:57:14.034Z,9.44
2019-02-28T22:59:47.562Z,9.44
2019-02-28T23:02:20.859Z,9.43
2019-02-28T23:04:56.819Z,9.43
2019-02-28T23:07:30.755Z,9.43
2019-02-28T23:10:05.029Z,9.43
2019-02-28T23:12:40.434Z,9.43
2019-02-28T23:15:14.268Z,9.43
2019-02-28T23:17:49.781Z,9.43
2019-02-28T23:20:23.268Z,9.42
2019-02-28T23:22:56.858Z,9.43
2019-02-28T23:25:29.380Z,9.43
2019-02-28T23:28:14.095Z,9.41
2019-02-28T23:31:46.523Z,9.40
2019-02-28T23:34:30.602Z,9.38
2019-02-28T23:37:05.448Z,9.36
2019-02-28T23:39:38.051Z,9.34
2019-02-28T23:42:12.868Z,9.30
2019-02-28T23:44:46.453Z,9.24
2019-02-28T23:47:18.931Z,9.20
2019-02-28T23:49:51.818Z,9.15
2019-02-28T23:52:24.448Z,9.11
2019-02-28T23:55:05.363Z,9.09
2019-02-28T23:57:38.189Z,9.07
